Time;durP1;ratioP1;P1;durP2;ratioP2;P2;SDS_P1;SDS_P2;PMS_P1;PMS_P2;Temp;Humidity;BMP_temperature;BMP_pressure;BME280_temperature;BME280_humidity;BME280_pressure;Samples;Min_cycle;Max_cycle;Signal;HPM_P1;HPM_P2
2022/09/29 00:00:23;;;;;;;1.50;1.40;;;;;;;7.13;100.00;100046.88;5013738;28;20183;-69
2022/09/29 00:02:48;;;;;;;1.30;1.20;;;;;;;6.84;100.00;100027.41;5010815;28;20445;-69
2022/09/29 00:05:14;;;;;;;1.80;1.30;;;;;;;7.08;100.00;100071.44;5023983;28;20844;-69
2022/09/29 00:07:39;;;;;;;1.20;1.10;;;;;;;6.74;100.00;100040.22;5012106;28;20199;-69
2022/09/29 00:10:05;;;;;;;1.10;1.00;;;;;;;6.19;100.00;99945.94;4999726;28;20215;-69
2022/09/29 00:12:30;;;;;;;1.20;1.10;;;;;;;7.17;100.00;100075.63;5017816;28;20188;-68
2022/09/29 00:14:56;;;;;;;1.83;1.50;;;;;;;6.81;100.00;100017.13;5017656;28;20207;-69
2022/09/29 00:17:21;;;;;;;2.93;1.60;;;;;;;6.59;100.00;100020.84;5017002;28;20194;-69
2022/09/29 00:19:47;;;;;;;2.07;1.60;;;;;;;6.92;100.00;100045.94;5016954;28;20189;-69
2022/09/29 00:22:12;;;;;;;1.20;1.10;;;;;;;7.11;100.00;100068.41;5014196;28;20832;-69
2022/09/29 00:24:38;;;;;;;0.90;0.90;;;;;;;6.21;100.00;99934.06;5005856;28;20188;-69
2022/09/29 00:27:03;;;;;;;1.20;1.10;;;;;;;5.73;100.00;99866.47;5015653;28;20188;-70
2022/09/29 00:29:29;;;;;;;1.30;1.20;;;;;;;6.88;100.00;100047.31;5015498;28;20192;-69
2022/09/29 00:31:54;;;;;;;1.30;1.20;;;;;;;6.95;100.00;100069.53;5020821;28;20263;-69
2022/09/29 00:34:19;;;;;;;2.17;1.17;;;;;;;6.77;100.00;100050.53;5023218;28;20215;-70
2022/09/29 00:36:45;;;;;;;1.10;1.00;;;;;;;7.00;100.00;100076.94;5022274;28;20734;-69
2022/09/29 00:39:11;;;;;;;3.23;1.13;;;;;;;6.91;100.00;100081.59;5016311;28;20212;-70
2022/09/29 00:41:38;;;;;;;1.20;1.10;;;;;;;6.97;100.00;100072.84;5018513;28;20829;-70
2022/09/29 00:44:45;;;;;;;1.47;1.37;;;;;;;6.89;100.00;100070.31;5017463;28;20728;-69
2022/09/29 00:47:15;;;;;;;3.23;1.33;;;;;;;6.39;100.00;100013.50;5015250;28;20443;-69
2022/09/29 00:49:43;;;;;;;1.30;1.20;;;;;;;6.79;100.00;100077.81;5002212;28;20470;-69
2022/09/29 00:52:27;;;;;;;1.77;1.40;;;;;;;6.81;100.00;100081.09;5015971;28;20586;-69
2022/09/29 00:55:01;;;;;;;1.40;1.30;;;;;;;6.96;100.00;100068.50;5017061;28;20454;-69
2022/09/29 00:57:33;;;;;;;1.40;1.30;;;;;;;6.70;100.00;100046.97;5016957;28;20531;-69
2022/09/29 01:00:07;;;;;;;1.67;1.50;;;;;;;6.86;100.00;100032.56;5003534;28;20427;-69
2022/09/29 01:02:36;;;;;;;1.40;1.30;;;;;;;6.85;100.00;100074.38;5017338;28;20806;-69
2022/09/29 01:05:07;;;;;;;2.60;1.60;;;;;;;6.40;100.00;100041.00;5003372;28;20837;-69
2022/09/29 01:07:33;;;;;;;1.40;1.30;;;;;;;6.34;100.00;100014.09;5012285;28;20457;-69
2022/09/29 01:09:58;;;;;;;1.20;1.10;;;;;;;6.34;100.00;100005.28;5001408;28;20459;-69
2022/09/29 01:12:24;;;;;;;1.43;1.33;;;;;;;6.69;100.00;100078.13;5019832;28;20184;-69
2022/09/29 01:14:52;;;;;;;1.30;1.20;;;;;;;6.54;100.00;100067.56;5015930;28;20272;-69
2022/09/29 01:17:17;;;;;;;1.17;1.07;;;;;;;6.74;100.00;100077.53;5015849;28;20214;-69
2022/09/29 01:19:58;;;;;;;1.40;1.30;;;;;;;6.75;100.00;100068.56;5000435;28;20438;-69
2022/09/29 01:22:49;;;;;;;1.27;1.17;;;;;;;6.45;100.00;100067.88;5002056;28;20652;-70
2022/09/29 01:25:38;;;;;;;1.50;1.37;;;;;;;6.66;100.00;100073.19;5017046;28;20466;-69
2022/09/29 01:28:15;;;;;;;1.50;1.40;;;;;;;6.75;100.00;100079.22;5015797;28;20499;-69
2022/09/29 01:31:04;;;;;;;0.87;0.87;;;;;;;6.54;100.00;100072.88;5016245;28;20527;-69
2022/09/29 01:33:44;;;;;;;1.20;1.10;;;;;;;6.40;100.00;100075.63;4992020;28;20439;-69
2022/09/29 01:36:22;;;;;;;1.60;1.50;;;;;;;6.52;100.00;100074.09;5015696;28;20468;-69
2022/09/29 01:39:05;;;;;;;1.47;1.30;;;;;;;5.92;100.00;100022.84;5016446;28;20500;-69
2022/09/29 01:41:48;;;;;;;1.70;1.60;;;;;;;6.19;100.00;100060.44;5016702;28;20473;-69
2022/09/29 01:44:25;;;;;;;1.53;1.43;;;;;;;5.71;100.00;99990.91;5016346;28;20513;-70
2022/09/29 01:47:00;;;;;;;1.70;1.60;;;;;;;6.07;100.00;100066.25;5015442;28;20470;-69
2022/09/29 01:49:31;;;;;;;1.30;1.20;;;;;;;6.27;100.00;100077.13;5003865;28;20450;-69
2022/09/29 01:52:16;;;;;;;2.57;1.70;;;;;;;6.10;100.00;100073.88;5012322;28;20447;-69
2022/09/29 01:54:53;;;;;;;1.30;1.20;;;;;;;6.33;100.00;100083.53;5017091;28;20884;-70
2022/09/29 01:57:29;;;;;;;1.30;1.20;;;;;;;6.27;100.00;100071.78;5018497;28;20438;-69
2022/09/29 02:00:04;;;;;;;1.43;1.33;;;;;;;6.23;100.00;100064.38;5016189;28;20458;-69
2022/09/29 02:02:39;;;;;;;1.30;1.20;;;;;;;5.57;100.00;99974.78;5016191;28;20438;-69
2022/09/29 02:05:12;;;;;;;1.57;1.40;;;;;;;6.31;100.00;100080.25;5014912;28;20454;-69
2022/09/29 02:07:41;;;;;;;1.57;1.47;;;;;;;6.14;100.00;100058.34;5015888;28;20476;-70
2022/09/29 02:10:17;;;;;;;1.30;1.20;;;;;;;6.50;100.00;100076.13;4998223;28;20463;-69
2022/09/29 02:12:44;;;;;;;1.80;1.70;;;;;;;6.28;100.00;100072.63;4999184;28;20447;-69
2022/09/29 02:15:14;;;;;;;1.30;1.20;;;;;;;6.32;100.00;100100.53;5014940;28;20536;-69
2022/09/29 02:17:44;;;;;;;1.60;1.50;;;;;;;5.94;100.00;100047.50;5000042;28;20799;-69
2022/09/29 02:20:11;;;;;;;1.60;1.50;;;;;;;6.66;100.00;100077.72;5016326;28;20484;-69
2022/09/29 02:22:37;;;;;;;2.23;1.57;;;;;;;5.68;100.00;99954.03;5015056;28;20455;-69
2022/09/29 02:25:03;;;;;;;1.87;1.70;;;;;;;6.29;100.00;100080.44;5014649;28;20468;-69
2022/09/29 02:27:29;;;;;;;1.37;1.27;;;;;;;6.23;100.00;100078.53;5015530;28;20454;-69
2022/09/29 02:29:58;;;;;;;2.63;1.40;;;;;;;6.42;100.00;100071.75;5015224;28;20467;-69
2022/09/29 02:32:23;;;;;;;1.30;1.20;;;;;;;5.83;100.00;100005.38;5015153;28;20197;-69
2022/09/29 02:34:51;;;;;;;1.83;1.23;;;;;;;5.50;100.00;99928.66;5011135;28;20443;-70
2022/09/29 02:37:58;;;;;;;1.40;1.30;;;;;;;6.39;100.00;100087.28;4994557;28;20275;-69
2022/09/29 02:40:31;;;;;;;1.30;1.20;;;;;;;6.54;100.00;100080.06;5006509;28;20512;-69
2022/09/29 02:43:02;;;;;;;1.30;1.20;;;;;;;6.62;100.00;100082.56;5013103;28;26547;-70
2022/09/29 02:45:50;;;;;;;1.30;1.20;;;;;;;6.71;100.00;100084.13;5013162;28;20881;-69
2022/09/29 02:48:35;;;;;;;1.17;1.10;;;;;;;6.26;100.00;100085.31;5014709;28;20443;-69
2022/09/29 02:51:23;;;;;;;2.03;1.60;;;;;;;6.10;100.00;100065.91;4995115;28;21145;-69
2022/09/29 02:54:11;;;;;;;1.10;1.00;;;;;;;6.27;100.00;100079.78;5012866;28;20694;-69
2022/09/29 02:56:54;;;;;;;2.20;1.30;;;;;;;6.49;100.00;100087.78;5014485;28;20462;-69
2022/09/29 02:59:29;;;;;;;1.30;1.20;;;;;;;5.85;100.00;100020.13;5015243;28;20430;-69
2022/09/29 03:01:56;;;;;;;1.60;1.50;;;;;;;6.29;100.00;100080.44;5015074;28;20500;-69
2022/09/29 03:04:26;;;;;;;1.30;1.20;;;;;;;6.15;100.00;100083.97;5014464;28;20956;-69
2022/09/29 03:06:52;;;;;;;1.30;1.20;;;;;;;6.32;100.00;100096.03;4997630;28;20555;-69
2022/09/29 03:09:18;;;;;;;1.30;1.20;;;;;;;6.10;100.00;100086.34;5015813;28;21167;-69
2022/09/29 03:11:43;;;;;;;1.33;1.23;;;;;;;5.91;100.00;100044.34;5013586;28;20480;-69
2022/09/29 03:14:09;;;;;;;1.37;1.27;;;;;;;6.13;100.00;100085.16;5013682;28;20181;-69
2022/09/29 03:16:35;;;;;;;1.10;1.00;;;;;;;5.44;100.00;100003.91;5014301;28;20212;-68
2022/09/29 03:19:01;;;;;;;1.13;1.10;;;;;;;6.19;100.00;100089.72;4998591;28;20196;-68
2022/09/29 03:21:27;;;;;;;1.10;1.00;;;;;;;5.54;100.00;99980.47;5010315;28;20452;-69
2022/09/29 03:23:52;;;;;;;1.63;1.20;;;;;;;5.34;100.00;100025.44;5012974;28;20294;-69
2022/09/29 03:26:18;;;;;;;0.90;0.90;;;;;;;5.30;100.00;99983.47;5012347;28;20219;-69
2022/09/29 03:28:44;;;;;;;0.90;0.90;;;;;;;5.68;100.00;100071.09;4996749;28;20228;-69
2022/09/29 03:31:09;;;;;;;1.30;1.17;;;;;;;5.97;100.00;100102.19;5011913;28;20488;-69
2022/09/29 03:33:37;;;;;;;1.30;1.20;;;;;;;5.26;100.00;100006.91;4994675;28;20603;-69
2022/09/29 03:36:04;;;;;;;1.30;1.20;;;;;;;5.12;100.00;99982.00;5011763;28;20239;-69
2022/09/29 03:38:30;;;;;;;1.30;1.20;;;;;;;4.74;100.00;99889.13;5012856;28;20435;-69
2022/09/29 03:40:55;;;;;;;1.50;1.40;;;;;;;4.73;100.00;99948.53;5016106;28;20446;-69
2022/09/29 03:43:20;;;;;;;1.50;1.10;;;;;;;5.61;100.00;100060.34;5012438;28;20809;-69
2022/09/29 03:45:50;;;;;;;1.23;1.13;;;;;;;4.94;100.00;99974.38;5011857;28;20298;-69
2022/09/29 03:48:17;;;;;;;1.50;1.40;;;;;;;5.75;100.00;100109.25;5016348;28;20188;-70
2022/09/29 03:50:48;;;;;;;1.37;1.27;;;;;;;5.50;100.00;100047.56;5014419;28;21069;-69
2022/09/29 03:53:14;;;;;;;1.50;1.40;;;;;;;5.95;100.00;100094.38;5011670;28;20446;-69
2022/09/29 03:55:44;;;;;;;1.50;1.40;;;;;;;5.69;100.00;100086.88;5011708;28;20955;-69
2022/09/29 03:58:09;;;;;;;1.40;1.30;;;;;;;5.46;100.00;100051.56;5012563;28;20448;-69
2022/09/29 04:00:35;;;;;;;2.23;1.63;;;;;;;5.55;100.00;100069.91;5014185;28;20446;-69
2022/09/29 04:03:00;;;;;;;1.63;1.53;;;;;;;5.33;100.00;100061.03;5011202;28;20192;-69
2022/09/29 04:05:27;;;;;;;2.27;1.50;;;;;;;4.86;100.00;99974.50;5004308;28;20227;-69
2022/09/29 04:07:53;;;;;;;1.80;1.70;;;;;;;5.40;100.00;100026.53;4985607;28;20291;-69
2022/09/29 04:10:19;;;;;;;1.70;1.60;;;;;;;5.65;100.00;100099.72;5000848;28;20476;-69
2022/09/29 04:12:44;;;;;;;1.60;1.50;;;;;;;5.51;100.00;100047.34;4986890;28;20227;-69
2022/09/29 04:15:09;;;;;;;1.70;1.60;;;;;;;5.07;100.00;99968.44;5000408;28;22684;-69
2022/09/29 04:17:35;;;;;;;1.87;1.73;;;;;;;5.45;100.00;100056.06;5003813;28;20196;-69
2022/09/29 04:20:00;;;;;;;2.90;1.90;;;;;;;5.56;100.00;100060.94;5002443;28;22949;-69
2022/09/29 04:22:26;;;;;;;2.60;1.80;;;;;;;5.65;100.00;100086.41;5000251;28;20195;-68
2022/09/29 04:24:51;;;;;;;1.77;1.67;;;;;;;5.63;100.00;100103.56;5001131;28;21589;-68
2022/09/29 04:27:17;;;;;;;1.70;1.60;;;;;;;5.58;100.00;100103.28;5006097;28;20762;-69
2022/09/29 04:29:43;;;;;;;1.57;1.47;;;;;;;5.03;100.00;99988.41;5005941;28;22557;-69
2022/09/29 04:32:09;;;;;;;2.23;1.73;;;;;;;4.98;100.00;99973.03;4999621;28;21002;-69
2022/09/29 04:34:34;;;;;;;1.80;1.70;;;;;;;5.52;100.00;100058.81;5003496;28;20279;-69
2022/09/29 04:37:00;;;;;;;1.60;1.50;;;;;;;5.02;100.00;100007.22;5001322;28;20188;-69
2022/09/29 04:39:26;;;;;;;2.33;2.13;;;;;;;5.51;100.00;100110.38;5001430;28;20187;-68
2022/09/29 04:41:51;;;;;;;2.33;2.13;;;;;;;5.43;100.00;100106.78;5002586;28;20219;-69
2022/09/29 04:44:19;;;;;;;1.93;1.83;;;;;;;4.75;100.00;99997.03;4999881;28;20529;-69
2022/09/29 04:46:44;;;;;;;2.20;2.00;;;;;;;5.50;100.00;100111.38;4999017;28;20212;-69
2022/09/29 04:49:10;;;;;;;2.03;1.93;;;;;;;5.38;100.00;100081.72;5006255;28;22991;-69
2022/09/29 04:51:35;;;;;;;2.10;2.00;;;;;;;5.06;100.00;100019.13;5005106;28;20635;-69
2022/09/29 04:54:01;;;;;;;2.03;1.93;;;;;;;5.27;100.00;100037.00;4998790;28;20254;-69
2022/09/29 04:56:30;;;;;;;3.10;2.90;;;;;;;5.58;100.00;100108.59;5003118;28;20220;-69
2022/09/29 04:58:56;;;;;;;3.30;3.00;;;;;;;4.43;100.00;99953.00;5010629;28;20605;-69
2022/09/29 05:01:21;;;;;;;2.90;2.70;;;;;;;5.60;100.00;100111.91;5013405;28;20451;-69
2022/09/29 05:03:46;;;;;;;2.63;2.43;;;;;;;5.84;100.00;100121.44;5003098;28;20454;-69
2022/09/29 05:06:12;;;;;;;5.30;3.50;;;;;;;5.63;100.00;100122.19;5005100;28;20784;-69
2022/09/29 05:08:38;;;;;;;4.73;3.97;;;;;;;5.20;100.00;100071.47;5002424;28;20794;-69
2022/09/29 05:11:05;;;;;;;3.47;3.17;;;;;;;4.88;100.00;99984.94;5003995;28;20478;-69
2022/09/29 05:13:31;;;;;;;5.47;4.70;;;;;;;5.09;100.00;100043.53;5006431;28;20661;-69
2022/09/29 05:15:56;;;;;;;6.40;5.27;;;;;;;4.92;100.00;100057.97;4995480;28;20461;-69
2022/09/29 05:18:23;;;;;;;8.47;6.23;;;;;;;5.68;100.00;100140.28;5022583;28;20649;-69
2022/09/29 05:20:48;;;;;;;8.50;7.00;;;;;;;5.37;100.00;100125.31;5022564;28;20276;-69
2022/09/29 05:23:13;;;;;;;8.30;6.40;;;;;;;5.48;100.00;100108.06;5014461;28;20518;-69
2022/09/29 05:25:39;;;;;;;9.67;7.13;;;;;;;5.57;100.00;100141.56;5019697;28;20208;-69
2022/09/29 05:28:05;;;;;;;7.13;5.63;;;;;;;5.43;100.00;100101.47;5014087;28;20200;-69
2022/09/29 05:30:30;;;;;;;5.30;4.50;;;;;;;5.86;100.00;100154.03;5022617;28;20259;-69
2022/09/29 05:32:56;;;;;;;4.37;3.90;;;;;;;5.80;100.00;100152.09;5020721;28;20207;-69
2022/09/29 05:35:21;;;;;;;4.63;4.10;;;;;;;5.76;100.00;100164.13;5019311;28;20212;-69
2022/09/29 05:37:46;;;;;;;5.40;4.07;;;;;;;5.37;100.00;100096.06;5005538;28;20230;-69
2022/09/29 05:40:12;;;;;;;4.10;3.70;;;;;;;5.27;100.00;100098.16;5018889;28;20215;-69
2022/09/29 05:42:39;;;;;;;3.90;3.60;;;;;;;5.83;100.00;100165.88;5013799;28;20197;-69
2022/09/29 05:45:07;;;;;;;3.80;3.50;;;;;;;5.55;100.00;100167.50;5013373;28;20212;-69
2022/09/29 05:47:33;;;;;;;3.17;2.73;;;;;;;4.86;100.00;100062.19;5021754;28;20446;-69
2022/09/29 05:49:58;;;;;;;2.97;2.63;;;;;;;5.24;100.00;100138.41;5015765;28;20471;-70
2022/09/29 05:52:23;;;;;;;3.30;2.80;;;;;;;5.76;100.00;100156.97;5019130;28;20688;-69
2022/09/29 05:54:50;;;;;;;2.80;2.60;;;;;;;5.16;100.00;100038.28;5018071;28;20200;-69
2022/09/29 05:57:15;;;;;;;3.40;3.10;;;;;;;5.84;100.00;100172.00;5015894;28;20605;-69
2022/09/29 05:59:40;;;;;;;3.17;2.50;;;;;;;5.44;100.00;100092.50;5018829;28;20479;-69
2022/09/29 06:02:07;;;;;;;3.60;3.30;;;;;;;5.78;100.00;100136.31;5019611;28;20195;-69
2022/09/29 06:04:32;;;;;;;4.33;3.93;;;;;;;5.44;100.00;100124.41;5022110;28;20296;-69
2022/09/29 06:06:58;;;;;;;3.50;3.20;;;;;;;5.81;100.00;100175.03;4994668;28;20528;-69
2022/09/29 06:09:23;;;;;;;3.53;3.03;;;;;;;4.79;100.00;100004.63;5013488;28;20196;-69
2022/09/29 06:11:48;;;;;;;3.53;3.23;;;;;;;5.93;100.00;100162.09;5018995;28;20279;-69
2022/09/29 06:14:14;;;;;;;5.50;3.27;;;;;;;5.93;100.00;100191.38;5021539;28;20197;-69
2022/09/29 06:16:40;;;;;;;3.77;3.40;;;;;;;5.42;100.00;100099.00;5001612;28;20236;-69
2022/09/29 06:19:05;;;;;;;3.80;3.40;;;;;;;5.16;100.00;100051.59;5018557;28;20560;-69
2022/09/29 06:21:33;;;;;;;3.33;2.83;;;;;;;6.05;100.00;100189.94;5016748;28;20192;-69
2022/09/29 06:23:58;;;;;;;3.20;2.90;;;;;;;5.50;100.00;100082.13;5005256;28;20234;-69
2022/09/29 06:26:25;;;;;;;2.90;2.70;;;;;;;6.23;100.00;100193.03;5017549;28;20475;-70
2022/09/29 06:28:52;;;;;;;3.70;3.17;;;;;;;6.00;100.00;100145.22;5020456;28;20270;-69
2022/09/29 06:31:20;;;;;;;3.00;2.70;;;;;;;6.04;100.00;100151.00;5018099;28;20545;-69
2022/09/29 06:33:45;;;;;;;3.40;3.10;;;;;;;6.37;100.00;100209.19;5021531;28;20437;-69
2022/09/29 06:39:31;;;;;;;3.57;3.07;;;;;;;6.26;100.00;100184.66;4984719;28;20711;-70
2022/09/29 06:41:56;;;;;;;3.00;2.80;;;;;;;5.96;100.00;100103.19;5010492;28;20434;-70
2022/09/29 06:44:24;;;;;;;4.30;3.30;;;;;;;6.57;100.00;100220.91;5019610;28;20435;-69
2022/09/29 06:46:50;;;;;;;3.30;3.00;;;;;;;6.54;100.00;100184.78;5020660;28;20223;-68
2022/09/29 06:49:16;;;;;;;3.67;3.23;;;;;;;6.97;100.00;100205.31;5019668;28;20455;-69
2022/09/29 06:51:42;;;;;;;2.93;2.73;;;;;;;6.84;100.00;100208.69;5022347;28;20200;-69
2022/09/29 06:54:12;;;;;;;2.80;2.60;;;;;;;6.78;100.00;100198.78;5019886;28;20482;-69
2022/09/29 06:56:38;;;;;;;3.00;2.80;;;;;;;6.89;100.00;100214.28;5020832;28;20451;-70
2022/09/29 06:59:04;;;;;;;2.63;2.43;;;;;;;6.55;100.00;100165.13;5020851;28;20513;-69
2022/09/29 07:01:29;;;;;;;2.93;2.73;;;;;;;6.45;100.00;100108.66;5004700;28;20427;-69
2022/09/29 07:03:55;;;;;;;3.40;2.67;;;;;;;7.20;100.00;100218.44;5021437;28;20204;-69
2022/09/29 07:06:21;;;;;;;2.80;2.60;;;;;;;7.10;100.00;100220.63;5018674;28;20207;-69
2022/09/29 07:08:46;;;;;;;3.67;3.37;;;;;;;7.09;100.00;100211.78;5016325;28;20238;-69
2022/09/29 07:11:11;;;;;;;2.97;2.77;;;;;;;6.93;100.00;100180.88;5014429;28;20243;-69
2022/09/29 07:13:37;;;;;;;3.30;3.00;;;;;;;7.34;100.00;100230.88;5001208;28;20180;-69
2022/09/29 07:16:07;;;;;;;4.20;3.80;;;;;;;7.29;100.00;100243.97;5015791;28;20287;-69
2022/09/29 07:18:39;;;;;;;4.00;3.60;;;;;;;7.59;100.00;100230.47;5014596;28;20246;-69
2022/09/29 07:21:06;;;;;;;4.03;3.73;;;;;;;7.60;100.00;100232.09;5008195;28;20437;-69
2022/09/29 07:23:32;;;;;;;4.80;3.20;;;;;;;7.69;100.00;100241.59;5009292;28;20615;-69
2022/09/29 07:25:58;;;;;;;4.30;3.90;;;;;;;7.24;100.00;100163.69;4998380;28;20475;-69
2022/09/29 07:28:24;;;;;;;4.00;3.60;;;;;;;7.80;100.00;100235.72;5006012;28;20447;-70
2022/09/29 07:31:00;;;;;;;4.27;3.57;;;;;;;7.70;100.00;100219.25;5017341;28;20209;-69
2022/09/29 07:33:26;;;;;;;3.77;3.47;;;;;;;7.74;100.00;100182.31;5009879;28;20442;-69
2022/09/29 07:35:52;;;;;;;4.80;3.73;;;;;;;8.06;100.00;100242.25;4996975;28;21097;-69
2022/09/29 07:38:18;;;;;;;5.03;4.63;;;;;;;7.70;100.00;100163.19;5015870;28;20536;-69
2022/09/29 07:40:43;;;;;;;5.10;4.60;;;;;;;8.12;100.00;100201.41;5016662;28;20450;-70
2022/09/29 07:43:09;;;;;;;8.13;7.33;;;;;;;8.04;100.00;100190.88;5016921;28;20299;-69
2022/09/29 07:45:34;;;;;;;7.40;6.60;;;;;;;8.38;100.00;100240.78;5014833;28;20231;-70
2022/09/29 07:48:00;;;;;;;8.33;7.53;;;;;;;8.15;100.00;100198.34;5016349;28;20649;-69
2022/09/29 07:50:25;;;;;;;8.93;8.00;;;;;;;8.17;100.00;100216.84;5016039;28;20718;-69
2022/09/29 07:52:51;;;;;;;11.10;9.40;;;;;;;6.95;100.00;100053.53;5030766;23;20271;-76
2022/09/29 07:55:17;;;;;;;9.87;8.87;;;;;;;7.25;100.00;100077.31;5015259;28;20557;-76
2022/09/29 07:57:42;;;;;;;10.50;9.00;;;;;;;7.32;100.00;100091.53;5016499;28;20454;-76
2022/09/29 08:00:08;;;;;;;9.97;8.90;;;;;;;7.41;100.00;100114.38;5005639;28;20234;-76
2022/09/29 08:02:34;;;;;;;12.07;8.50;;;;;;;7.63;100.00;100120.44;5020224;28;20952;-76
2022/09/29 08:04:59;;;;;;;8.37;7.57;;;;;;;7.66;100.00;100087.19;5001931;28;20455;-76
2022/09/29 08:07:25;;;;;;;10.03;8.40;;;;;;;8.20;100.00;100187.06;4996377;28;20188;-76
2022/09/29 08:09:50;;;;;;;12.80;9.10;;;;;;;6.79;100.00;99961.34;5010249;28;20679;-76
2022/09/29 08:12:15;;;;;;;10.50;9.00;;;;;;;6.98;100.00;100028.31;5017946;28;20205;-76
2022/09/29 08:14:42;;;;;;;9.17;7.87;;;;;;;7.32;100.00;100040.84;5020197;28;20173;-76
2022/09/29 08:17:07;;;;;;;8.73;7.83;;;;;;;7.46;100.00;100042.56;5020441;28;20176;-76
2022/09/29 08:19:33;;;;;;;10.73;8.33;;;;;;;8.67;100.00;100217.47;5020604;28;20502;-76
2022/09/29 08:21:58;;;;;;;10.43;9.23;;;;;;;7.37;100.00;100002.88;5021892;28;20176;-76
2022/09/29 08:24:24;;;;;;;10.23;9.13;;;;;;;8.61;100.00;100197.72;5020295;28;20186;-76
2022/09/29 08:26:49;;;;;;;11.90;9.90;;;;;;;8.34;100.00;100144.16;5021291;28;20185;-76
2022/09/29 08:29:14;;;;;;;10.50;9.17;;;;;;;7.79;100.00;100049.06;5019087;28;20200;-76
2022/09/29 08:31:42;;;;;;;9.97;8.93;;;;;;;7.72;100.00;100002.81;5023268;28;20266;-76
2022/09/29 08:34:08;;;;;;;11.17;9.90;;;;;;;9.03;100.00;100258.09;5013251;28;20765;-76
2022/09/29 08:36:35;;;;;;;12.43;9.60;;;;;;;7.85;100.00;100070.44;5011722;28;20434;-75
2022/09/29 08:39:01;;;;;;;11.47;10.27;;;;;;;9.84;100.00;100379.50;5037864;28;20423;-76
2022/09/29 08:41:51;;;;;;;12.00;9.93;;;;;;;9.95;100.00;100342.22;5024261;28;20474;-76
2022/09/29 08:44:41;;;;;;;13.53;10.50;;;;;;;9.84;100.00;100337.47;5024592;28;20187;-76
2022/09/29 08:47:24;;;;;;;13.63;11.37;;;;;;;9.91;100.00;100342.81;5024542;28;20456;-76
2022/09/29 08:49:58;;;;;;;15.67;11.80;;;;;;;8.73;100.00;100187.25;5024567;28;20454;-76
2022/09/29 08:52:30;;;;;;;14.80;11.60;;;;;;;8.80;100.00;100196.13;5024267;28;20461;-75
2022/09/29 08:55:12;;;;;;;13.13;11.20;;;;;;;8.23;100.00;100102.00;5022312;28;20427;-76
2022/09/29 08:57:37;;;;;;;10.40;9.30;;;;;;;9.65;100.00;100269.47;5008504;28;20527;-77
2022/09/29 09:00:06;;;;;;;13.90;10.90;;;;;;;8.40;100.00;100081.09;5012857;28;20434;-76
2022/09/29 09:02:56;;;;;;;15.87;11.70;;;;;;;10.30;100.00;100358.09;5022726;28;20201;-76
2022/09/29 09:05:34;;;;;;;11.87;9.60;;;;;;;10.45;100.00;100359.72;5021998;28;20993;-76
2022/09/29 09:08:44;;;;;;;11.10;9.40;;;;;;;9.30;100.00;100150.28;5024977;28;20406;-77
2022/09/29 09:11:24;;;;;;;8.63;7.73;;;;;;;10.72;100.00;100360.44;5011894;28;20490;-75
2022/09/29 09:14:06;;;;;;;10.30;8.83;;;;;;;10.83;100.00;100359.78;5023390;28;20538;-74
2022/09/29 09:16:38;;;;;;;9.33;7.90;;;;;;;10.88;100.00;100360.00;5023474;28;20935;-75
2022/09/29 09:19:42;;;;;;;10.77;9.67;;;;;;;10.94;100.00;100363.69;5024228;28;20497;-75
2022/09/29 09:22:21;;;;;;;10.60;9.50;;;;;;;9.27;100.00;100130.09;5023513;28;20528;-74
2022/09/29 09:25:21;;;;;;;9.40;8.00;;;;;;;11.01;100.00;100354.56;5023149;28;20420;-74
2022/09/29 09:27:58;;;;;;;9.67;8.07;;;;;;;9.29;100.00;100136.06;5005896;28;20852;-75
2022/09/29 09:30:29;;;;;;;9.00;7.83;;;;;;;9.15;100.00;100091.63;5020791;28;20543;-75
2022/09/29 09:33:01;;;;;;;11.00;7.50;;;;;;;9.20;100.00;100070.41;5022290;28;20938;-75
2022/09/29 09:35:40;;;;;;;8.03;6.90;;;;;;;11.05;100.00;100349.56;5021464;28;20907;-75
2022/09/29 09:38:15;;;;;;;7.77;6.97;;;;;;;9.12;100.00;100042.03;5026301;28;20442;-75
2022/09/29 09:40:51;;;;;;;7.20;6.50;;;;;;;10.30;100.00;100212.47;5023863;28;20427;-75
2022/09/29 09:43:25;;;;;;;8.20;7.27;;;;;;;9.40;100.00;100047.13;5020306;28;20525;-75
2022/09/29 09:46:08;;;;;;;7.07;6.10;;;;;;;9.30;100.00;100029.84;5007938;28;20920;-76
2022/09/29 09:48:54;;;;;;;7.00;5.73;;;;;;;9.55;100.00;100038.84;5022935;28;20416;-75
2022/09/29 09:51:40;;;;;;;6.80;6.10;;;;;;;9.61;100.00;100037.97;5010444;28;20467;-75
2022/09/29 09:54:24;;;;;;;8.83;7.50;;;;;;;10.96;100.00;100248.88;5006267;28;20470;-76
2022/09/29 09:57:10;;;;;;;7.80;6.17;;;;;;;11.57;100.00;100331.53;5022937;28;20469;-75
2022/09/29 09:59:54;;;;;;;6.60;5.90;;;;;;;11.65;100.00;100328.56;4960256;28;20534;-75
2022/09/29 10:02:21;;;;;;;9.67;6.80;;;;;;;9.79;100.00;100012.34;5005844;28;20859;-75
2022/09/29 10:04:53;;;;;;;7.03;6.40;;;;;;;10.77;100.00;100186.28;5021701;28;20420;-75
2022/09/29 10:07:20;;;;;;;7.73;6.93;;;;;;;10.44;100.00;100143.53;5023732;28;20424;-75
2022/09/29 10:09:46;;;;;;;8.80;6.70;;;;;;;11.34;100.00;100232.75;5021114;28;20440;-76
2022/09/29 10:12:17;;;;;;;9.10;5.50;;;;;;;10.26;100.00;100023.63;5020837;28;20448;-75
2022/09/29 10:14:56;;;;;;;6.60;5.50;;;;;;;10.54;100.00;100050.06;5021579;28;20512;-75
2022/09/29 10:17:26;;;;;;;8.77;4.43;;;;;;;11.06;100.00;100123.94;5021382;28;20431;-76
2022/09/29 10:19:52;;;;;;;7.30;3.93;;;;;;;12.33;100.00;100324.28;5021800;28;20438;-76
2022/09/29 10:22:18;;;;;;;5.77;5.10;;;;;;;10.19;100.00;99956.69;5019722;28;20447;-75
2022/09/29 10:24:43;;;;;;;11.23;7.70;;;;;;;10.32;100.00;99967.31;5022976;28;20192;-76
2022/09/29 10:27:10;;;;;;;9.97;7.40;;;;;;;10.88;100.00;100048.75;5021236;28;20427;-75
2022/09/29 10:29:43;;;;;;;8.00;6.63;;;;;;;10.58;100.00;99974.31;5019101;28;20184;-76
2022/09/29 10:32:13;;;;;;;8.50;7.10;;;;;;;12.64;100.00;100312.53;5020153;28;20467;-75
2022/09/29 10:34:45;;;;;;;12.67;9.67;;;;;;;10.50;100.00;99971.09;5020616;28;20439;-74
2022/09/29 10:37:34;;;;;;;10.53;8.23;;;;;;;11.78;100.00;100247.03;5022464;28;20420;-75
2022/09/29 10:40:15;;;;;;;8.70;6.73;;;;;;;12.64;100.00;100312.53;5020836;28;20416;-75
2022/09/29 10:42:45;;;;;;;7.73;6.83;;;;;;;11.25;100.00;100106.03;5023288;28;20443;-75
2022/09/29 10:45:14;;;;;;;7.63;6.17;;;;;;;10.34;100.00;99951.84;5021804;28;20419;-76
2022/09/29 10:47:43;;;;;;;9.50;7.63;;;;;;;10.79;100.00;99973.09;5004024;28;20519;-75
2022/09/29 10:50:16;;;;;;;6.57;5.70;;;;;;;11.65;100.00;100135.13;5020541;28;20459;-75
2022/09/29 10:52:49;;;;;;;8.20;6.00;;;;;;;11.41;100.00;100099.25;5016854;28;20506;-75
2022/09/29 10:55:21;;;;;;;6.70;5.80;;;;;;;11.23;100.00;100077.75;5019643;28;20485;-76
2022/09/29 10:57:47;;;;;;;6.37;5.73;;;;;;;10.89;100.00;99971.78;5006147;28;20531;-75
2022/09/29 11:00:38;;;;;;;7.20;5.77;;;;;;;13.39;100.00;100311.38;5018181;28;20447;-74
2022/09/29 11:03:03;;;;;;;7.60;4.43;;;;;;;13.26;100.00;100307.00;5022222;28;20458;-75
2022/09/29 11:05:29;;;;;;;7.60;5.60;;;;;;;11.25;100.00;100009.38;5022629;28;20424;-76
2022/09/29 11:07:54;;;;;;;13.27;6.20;;;;;;;12.08;100.00;100149.59;5019940;28;20238;-76
2022/09/29 11:10:31;;;;;;;7.50;5.37;;;;;;;12.00;100.00;100107.69;5018976;28;20236;-75
2022/09/29 11:12:59;;;;;;;5.80;5.07;;;;;;;12.33;100.00;100109.16;5020913;28;20199;-74
2022/09/29 11:15:39;;;;;;;6.17;5.57;;;;;;;12.58;100.00;100131.34;5021387;28;20415;-75
2022/09/29 11:18:20;;;;;;;5.20;4.47;;;;;;;12.04;100.00;100041.72;5020057;28;20412;-75
2022/09/29 11:20:51;;;;;;;8.33;3.97;;;;;;;12.29;100.00;100134.84;5005807;28;20454;-75
2022/09/29 11:23:37;;;;;;;4.17;3.77;;;;;;;11.58;100.00;100045.75;5019348;28;20555;-75
2022/09/29 11:26:19;;;;;;;5.30;4.50;;;;;;;12.23;100.00;100128.50;5019721;28;20423;-74
2022/09/29 11:29:17;;;;;;;5.20;4.50;;;;;;;11.36;100.00;99993.56;5019864;28;20431;-74
2022/09/29 11:32:04;;;;;;;3.90;3.23;;;;;;;11.90;100.00;100142.34;5020592;28;20475;-74
2022/09/29 11:34:42;;;;;;;2.90;2.70;;;;;;;13.16;100.00;100312.91;5018987;28;20952;-74
2022/09/29 11:37:23;;;;;;;3.10;2.80;;;;;;;13.08;100.00;100313.25;5005671;28;20929;-75
2022/09/29 11:40:09;;;;;;;3.90;2.93;;;;;;;13.20;100.00;100308.72;5019566;28;20514;-75
2022/09/29 11:43:00;;;;;;;2.50;2.20;;;;;;;13.25;100.00;100321.47;5020547;28;20829;-75